createdAt,value
2019-01-21T00:00:32.051Z,99.99
2019-01-21T00:01:31.916Z,99.99
2019-01-21T00:02:31.772Z,99.99
2019-01-21T00:03:31.635Z,99.99
2019-01-21T00:04:31.497Z,99.99
2019-01-21T00:05:31.357Z,99.99
2019-01-21T00:06:31.222Z,99.99
2019-01-21T00:07:31.080Z,99.99
2019-01-21T00:08:30.940Z,99.99
2019-01-21T00:09:30.802Z,99.99
2019-01-21T00:10:30.662Z,99.99
2019-01-21T00:11:30.527Z,99.99
2019-01-21T00:12:30.384Z,99.99
2019-01-21T00:13:30.246Z,99.99
2019-01-21T00:14:30.107Z,99.99
2019-01-21T00:15:29.971Z,99.99
2019-01-21T00:16:29.830Z,99.99
2019-01-21T00:17:29.692Z,99.99
2019-01-21T00:18:29.550Z,99.99
2019-01-21T00:19:29.413Z,99.99
2019-01-21T00:20:29.272Z,99.99
2019-01-21T00:21:29.134Z,99.99
2019-01-21T00:22:28.995Z,99.99
2019-01-21T00:23:28.856Z,99.99
2019-01-21T00:24:28.717Z,99.99
2019-01-21T00:25:28.579Z,99.99
2019-01-21T00:26:28.440Z,99.99
2019-01-21T00:27:28.302Z,99.99
2019-01-21T00:28:28.162Z,99.99
2019-01-21T00:29:28.027Z,99.99
2019-01-21T00:30:27.882Z,99.99
2019-01-21T00:31:27.744Z,99.99
2019-01-21T00:32:27.609Z,99.99
2019-01-21T00:33:27.469Z,99.99
2019-01-21T00:34:27.329Z,99.99
2019-01-21T00:35:27.188Z,99.99
2019-01-21T00:36:27.050Z,99.99
2019-01-21T00:37:26.912Z,99.99
2019-01-21T00:38:26.773Z,99.99
2019-01-21T00:39:26.635Z,99.99
2019-01-21T00:40:26.497Z,99.99
2019-01-21T00:41:26.357Z,99.99
2019-01-21T00:42:26.217Z,99.99
2019-01-21T00:43:26.079Z,99.99
2019-01-21T00:44:25.940Z,99.99
2019-01-21T00:45:25.801Z,99.99
2019-01-21T00:46:25.663Z,99.99
2019-01-21T00:47:29.711Z,99.99
2019-01-21T00:48:25.385Z,99.99
2019-01-21T00:49:25.248Z,99.99
2019-01-21T00:50:25.106Z,99.99
2019-01-21T00:51:24.969Z,99.99
2019-01-21T00:52:24.828Z,99.99
2019-01-21T00:53:24.689Z,99.99
2019-01-21T00:54:24.549Z,99.99
2019-01-21T00:55:24.411Z,99.99
2019-01-21T00:56:24.273Z,99.99
2019-01-21T00:57:24.130Z,99.99
2019-01-21T00:58:24.001Z,99.99
2019-01-21T00:59:23.852Z,99.99
2019-01-21T01:00:23.711Z,99.99
2019-01-21T01:01:23.574Z,99.99
2019-01-21T01:02:23.434Z,99.99
2019-01-21T01:03:23.293Z,99.99
2019-01-21T01:04:23.154Z,99.99
2019-01-21T01:05:23.015Z,99.99
2019-01-21T01:06:22.873Z,99.99
2019-01-21T01:07:22.734Z,99.99
2019-01-21T01:08:22.599Z,99.99
2019-01-21T01:09:22.457Z,99.99
2019-01-21T01:10:22.315Z,99.99
2019-01-21T01:11:22.177Z,99.99
2019-01-21T01:12:22.042Z,99.99
2019-01-21T01:13:21.899Z,99.99
2019-01-21T01:14:21.759Z,99.99
2019-01-21T01:15:21.619Z,99.99
2019-01-21T01:16:21.479Z,99.99
2019-01-21T01:17:21.340Z,99.99
2019-01-21T01:18:21.200Z,99.99
2019-01-21T01:19:21.064Z,99.99
2019-01-21T01:20:20.924Z,99.99
2019-01-21T01:21:20.782Z,99.99
2019-01-21T01:22:20.643Z,99.99
2019-01-21T01:23:20.503Z,99.99
2019-01-21T01:24:20.365Z,99.99
2019-01-21T01:25:20.224Z,99.99
2019-01-21T01:26:20.087Z,99.99
2019-01-21T01:27:19.946Z,99.99
2019-01-21T01:28:19.808Z,99.99
2019-01-21T01:29:19.674Z,99.99
2019-01-21T01:30:19.535Z,99.99
2019-01-21T01:31:19.389Z,99.99
2019-01-21T01:32:19.251Z,99.99
2019-01-21T01:33:19.112Z,99.99
2019-01-21T01:34:18.972Z,99.99
2019-01-21T01:35:18.833Z,99.99
2019-01-21T01:36:18.699Z,99.99
2019-01-21T01:37:18.557Z,99.99
2019-01-21T01:38:18.420Z,99.99
2019-01-21T01:39:18.275Z,99.99
2019-01-21T01:40:18.138Z,99.99
2019-01-21T01:41:17.997Z,99.99
2019-01-21T01:42:17.865Z,99.99
2019-01-21T01:43:17.723Z,99.99
2019-01-21T01:44:17.579Z,99.99
2019-01-21T01:45:17.441Z,99.99
2019-01-21T01:46:17.302Z,99.99
2019-01-21T01:47:17.163Z,99.99
2019-01-21T01:48:17.025Z,99.99
2019-01-21T01:49:16.889Z,99.99
2019-01-21T01:50:16.744Z,99.99
2019-01-21T01:51:16.619Z,99.99
2019-01-21T01:52:16.468Z,99.99
2019-01-21T01:53:16.327Z,99.99
2019-01-21T01:54:16.186Z,99.99
2019-01-21T01:55:16.048Z,99.99
2019-01-21T01:56:15.909Z,99.99
2019-01-21T01:57:15.773Z,99.99
2019-01-21T01:58:15.630Z,99.99
2019-01-21T01:59:15.490Z,99.99
2019-01-21T02:00:15.354Z,99.99
2019-01-21T02:01:15.215Z,99.99
2019-01-21T02:02:15.075Z,99.99
2019-01-21T02:03:14.936Z,99.99
2019-01-21T02:04:14.797Z,99.99
2019-01-21T02:05:14.656Z,99.99
2019-01-21T02:06:14.518Z,99.99
2019-01-21T02:07:14.386Z,99.99
2019-01-21T02:08:14.242Z,99.99
2019-01-21T02:09:14.101Z,99.99
2019-01-21T02:10:13.960Z,99.99
2019-01-21T02:11:13.822Z,99.99
2019-01-21T02:12:13.682Z,99.99
2019-01-21T02:13:13.543Z,99.99
2019-01-21T02:14:13.402Z,99.99
2019-01-21T02:15:13.262Z,99.99
2019-01-21T02:16:13.126Z,99.99
2019-01-21T02:17:12.986Z,99.99
2019-01-21T02:18:12.846Z,99.99
2019-01-21T02:19:12.705Z,99.99
2019-01-21T02:20:12.567Z,99.99
2019-01-21T02:21:12.430Z,99.99
2019-01-21T02:22:12.287Z,99.99
2019-01-21T02:23:12.150Z,99.99
2019-01-21T02:24:12.012Z,99.99
2019-01-21T02:25:11.873Z,99.99
2019-01-21T02:26:11.737Z,99.99
2019-01-21T02:27:11.591Z,99.99
2019-01-21T02:28:11.451Z,99.99
2019-01-21T02:29:11.314Z,99.99
2019-01-21T02:30:11.176Z,99.99
2019-01-21T02:31:11.036Z,99.99
2019-01-21T02:32:10.897Z,99.99
2019-01-21T02:33:10.764Z,99.99
2019-01-21T02:34:10.629Z,99.99
2019-01-21T02:35:10.481Z,99.99
2019-01-21T02:36:10.340Z,99.99
2019-01-21T02:37:10.201Z,99.99
2019-01-21T02:38:10.060Z,99.99
2019-01-21T02:39:09.924Z,99.99
2019-01-21T02:40:09.801Z,99.99
2019-01-21T02:41:09.648Z,99.99
2019-01-21T02:42:09.505Z,99.99
2019-01-21T02:43:09.367Z,99.99
2019-01-21T02:44:09.229Z,99.99
2019-01-21T02:45:09.090Z,99.99
2019-01-21T02:46:08.951Z,99.99
2019-01-21T02:47:08.809Z,99.99
2019-01-21T02:48:08.674Z,99.99
2019-01-21T02:49:08.532Z,99.99
2019-01-21T02:50:08.393Z,99.99
2019-01-21T02:51:08.253Z,99.99
2019-01-21T02:52:08.115Z,99.99
2019-01-21T02:53:07.977Z,99.99
2019-01-21T02:54:07.835Z,99.99
2019-01-21T02:55:07.697Z,99.99
2019-01-21T02:56:07.562Z,99.99
2019-01-21T02:57:07.428Z,99.99
2019-01-21T02:58:07.279Z,99.99
2019-01-21T02:59:07.144Z,99.99
2019-01-21T03:00:07.007Z,99.99
2019-01-21T03:01:06.862Z,99.99
2019-01-21T03:02:06.734Z,99.99
2019-01-21T03:03:06.585Z,99.99
2019-01-21T03:04:06.446Z,99.99
2019-01-21T03:05:06.309Z,99.99
2019-01-21T03:06:06.169Z,99.99
2019-01-21T03:07:06.027Z,99.99
2019-01-21T03:08:05.889Z,99.99
2019-01-21T03:09:05.750Z,99.99
2019-01-21T03:10:05.611Z,99.99
2019-01-21T03:11:05.471Z,99.99
2019-01-21T03:12:05.332Z,99.99
2019-01-21T03:13:05.195Z,99.99
2019-01-21T03:14:05.054Z,99.99
2019-01-21T03:15:04.918Z,99.99
2019-01-21T03:16:04.781Z,99.99
2019-01-21T03:17:04.637Z,99.99
2019-01-21T03:18:07.997Z,99.99
2019-01-21T03:19:04.362Z,99.99
2019-01-21T03:20:04.222Z,99.99
2019-01-21T03:21:04.080Z,99.99
2019-01-21T03:22:03.944Z,99.99
2019-01-21T03:23:03.804Z,99.99
2019-01-21T03:24:03.675Z,99.99
2019-01-21T03:25:03.526Z,99.99
2019-01-21T03:26:03.388Z,99.99
2019-01-21T03:27:03.246Z,99.99
2019-01-21T03:28:03.109Z,99.99
2019-01-21T03:29:02.978Z,99.99
2019-01-21T03:30:02.833Z,99.99
2019-01-21T03:31:02.703Z,99.99
2019-01-21T03:32:02.553Z,99.99
2019-01-21T03:33:02.463Z,99.99
2019-01-21T03:34:02.277Z,99.99
2019-01-21T03:35:02.136Z,99.99
2019-01-21T03:36:01.999Z,99.99
2019-01-21T03:37:01.859Z,99.99
2019-01-21T03:38:01.724Z,99.99
2019-01-21T03:39:01.582Z,99.99
2019-01-21T03:40:01.440Z,99.99
2019-01-21T03:41:01.300Z,99.99
2019-01-21T03:42:01.168Z,99.99
2019-01-21T03:43:01.024Z,99.99
2019-01-21T03:44:00.886Z,99.99
2019-01-21T03:45:00.745Z,99.99
2019-01-21T03:46:00.605Z,99.99
2019-01-21T03:47:00.468Z,99.99
2019-01-21T03:48:00.333Z,99.99
2019-01-21T03:49:00.199Z,99.99
2019-01-21T03:50:00.055Z,99.99
2019-01-21T03:50:59.911Z,99.99
2019-01-21T03:51:59.776Z,99.99
2019-01-21T03:52:59.635Z,99.99
2019-01-21T03:53:59.493Z,99.99
2019-01-21T03:54:59.357Z,99.99
2019-01-21T03:55:59.219Z,99.99
2019-01-21T03:56:59.082Z,99.99
2019-01-21T03:57:58.941Z,99.99
2019-01-21T03:58:58.802Z,99.99
2019-01-21T03:59:58.663Z,99.99
2019-01-21T04:00:58.525Z,99.99
2019-01-21T04:01:58.388Z,99.99
2019-01-21T04:02:58.248Z,99.99
2019-01-21T04:03:58.107Z,99.99
2019-01-21T04:04:57.969Z,99.99
2019-01-21T04:05:57.828Z,99.99
2019-01-21T04:06:57.692Z,99.99
2019-01-21T04:07:57.551Z,99.99
2019-01-21T04:08:57.413Z,99.99
2019-01-21T04:09:57.272Z,99.99
2019-01-21T04:10:57.134Z,99.99
2019-01-21T04:11:56.996Z,99.99
2019-01-21T04:12:56.861Z,99.99
2019-01-21T04:13:56.716Z,99.99
2019-01-21T04:14:56.577Z,99.99
2019-01-21T04:15:56.441Z,99.99
2019-01-21T04:16:56.300Z,99.99
2019-01-21T04:17:56.163Z,99.99
2019-01-21T04:18:56.043Z,99.99
2019-01-21T04:19:55.885Z,99.99
2019-01-21T04:20:55.745Z,99.99
2019-01-21T04:21:55.605Z,99.99
2019-01-21T04:22:55.465Z,99.99
2019-01-21T04:23:55.379Z,99.99
2019-01-21T04:24:55.189Z,99.99
2019-01-21T04:25:55.051Z,99.99
2019-01-21T04:26:54.909Z,99.99
2019-01-21T04:27:54.779Z,99.99
2019-01-21T04:28:54.635Z,99.99
2019-01-21T04:29:54.492Z,99.99
2019-01-21T04:30:54.355Z,99.99
2019-01-21T04:31:54.215Z,99.99
2019-01-21T04:32:54.074Z,99.99
2019-01-21T04:33:53.934Z,99.99
2019-01-21T04:34:53.796Z,99.99
2019-01-21T04:35:53.657Z,99.99
2019-01-21T04:36:53.519Z,99.99
2019-01-21T04:37:53.380Z,99.99
2019-01-21T04:38:53.240Z,99.99
2019-01-21T04:39:53.102Z,99.99
2019-01-21T04:40:52.964Z,99.99
2019-01-21T04:41:52.824Z,99.99
2019-01-21T04:42:52.686Z,99.99
2019-01-21T04:43:52.543Z,99.99
2019-01-21T04:44:52.413Z,99.99
2019-01-21T04:45:52.268Z,99.99
2019-01-21T04:46:52.139Z,99.99
2019-01-21T04:47:51.991Z,99.99
2019-01-21T04:48:51.852Z,99.99
2019-01-21T04:49:51.714Z,99.99
2019-01-21T04:50:51.574Z,99.99
2019-01-21T04:51:51.436Z,99.99
2019-01-21T04:52:51.301Z,99.99
2019-01-21T04:53:51.157Z,99.99
2019-01-21T04:54:51.022Z,99.99
2019-01-21T04:55:50.880Z,99.99
2019-01-21T04:56:50.741Z,99.99
2019-01-21T04:57:50.613Z,99.99
2019-01-21T04:58:50.465Z,99.99
2019-01-21T04:59:50.327Z,99.99
2019-01-21T05:00:50.189Z,99.99
2019-01-21T05:01:50.049Z,99.99
2019-01-21T05:02:49.915Z,99.99
2019-01-21T05:03:50.004Z,99.99
2019-01-21T05:04:49.639Z,99.99
2019-01-21T05:05:49.496Z,99.99
2019-01-21T05:06:49.357Z,99.99
2019-01-21T05:07:49.219Z,99.99
2019-01-21T05:08:49.080Z,99.99
2019-01-21T05:09:48.944Z,99.99
2019-01-21T05:10:48.801Z,99.99
2019-01-21T05:11:48.669Z,99.99
2019-01-21T05:12:48.527Z,99.99
2019-01-21T05:13:48.386Z,99.99
2019-01-21T05:14:48.256Z,99.99
2019-01-21T05:15:48.113Z,99.99
2019-01-21T05:16:47.975Z,99.99
2019-01-21T05:17:47.834Z,99.99
2019-01-21T05:18:47.697Z,99.99
2019-01-21T05:19:47.558Z,99.99
2019-01-21T05:20:47.429Z,99.99
2019-01-21T05:21:47.289Z,99.99
2019-01-21T05:22:47.146Z,99.99
2019-01-21T05:23:47.011Z,99.99
2019-01-21T05:24:46.870Z,99.99
2019-01-21T05:25:46.731Z,99.99
2019-01-21T05:26:46.594Z,99.99
2019-01-21T05:27:46.454Z,99.99
2019-01-21T05:28:46.334Z,99.99
2019-01-21T05:29:46.180Z,99.99
2019-01-21T05:30:46.044Z,99.99
2019-01-21T05:31:46.013Z,99.99
2019-01-21T05:32:45.764Z,99.99
2019-01-21T05:33:45.628Z,99.99
2019-01-21T05:34:45.488Z,99.99
2019-01-21T05:35:45.352Z,99.99
2019-01-21T05:36:45.216Z,99.99
2019-01-21T05:37:45.073Z,99.99
2019-01-21T05:38:44.939Z,99.99
2019-01-21T05:39:44.800Z,99.99
2019-01-21T05:40:44.664Z,99.99
2019-01-21T05:41:44.522Z,99.99
2019-01-21T05:42:44.387Z,99.99
2019-01-21T05:43:44.251Z,99.99
2019-01-21T05:44:44.111Z,99.99
2019-01-21T05:45:43.972Z,99.99
2019-01-21T05:46:43.838Z,99.99
2019-01-21T05:47:43.697Z,99.99
2019-01-21T05:48:48.905Z,99.99
2019-01-21T05:49:43.467Z,99.99
2019-01-21T05:50:43.285Z,99.99
2019-01-21T05:51:43.147Z,99.99
2019-01-21T05:52:43.008Z,99.99
2019-01-21T05:53:42.879Z,99.99
2019-01-21T05:54:42.737Z,99.99
2019-01-21T05:55:42.596Z,99.99
2019-01-21T05:56:42.457Z,99.99
2019-01-21T05:57:42.325Z,99.99
2019-01-21T05:58:42.183Z,99.99
2019-01-21T05:59:42.047Z,99.99
2019-01-21T06:00:41.908Z,99.99
2019-01-21T06:01:41.767Z,99.99
2019-01-21T06:02:41.632Z,99.99
2019-01-21T06:03:41.494Z,99.99
2019-01-21T06:04:41.358Z,99.99
2019-01-21T06:05:41.216Z,99.99
2019-01-21T06:06:41.079Z,99.99
2019-01-21T06:07:40.946Z,99.99
2019-01-21T06:08:40.810Z,99.99
2019-01-21T06:09:40.668Z,99.99
2019-01-21T06:10:40.530Z,99.99
2019-01-21T06:11:40.390Z,99.99
2019-01-21T06:12:40.255Z,99.99
2019-01-21T06:13:40.125Z,99.99
2019-01-21T06:14:39.978Z,99.99
2019-01-21T06:15:39.840Z,99.99
2019-01-21T06:16:39.740Z,99.99
2019-01-21T06:17:39.564Z,99.99
2019-01-21T06:18:39.425Z,99.99
2019-01-21T06:19:39.289Z,99.99
2019-01-21T06:20:39.155Z,99.99
2019-01-21T06:21:39.017Z,99.99
2019-01-21T06:22:38.899Z,99.99
2019-01-21T06:23:38.740Z,99.99
2019-01-21T06:24:38.601Z,99.99
2019-01-21T06:25:38.467Z,99.99
2019-01-21T06:26:38.327Z,99.99
2019-01-21T06:27:38.191Z,99.99
2019-01-21T06:28:38.050Z,99.99
2019-01-21T06:29:37.912Z,99.99
2019-01-21T06:30:37.779Z,99.99
2019-01-21T06:31:37.667Z,99.99
2019-01-21T06:32:37.503Z,99.99
2019-01-21T06:33:37.362Z,99.99
2019-01-21T06:34:37.230Z,99.99
2019-01-21T06:35:37.093Z,99.99
2019-01-21T06:36:36.949Z,99.99
2019-01-21T06:37:36.812Z,99.99
2019-01-21T06:38:36.677Z,99.99
2019-01-21T06:39:36.540Z,99.99
2019-01-21T06:40:36.402Z,99.99
2019-01-21T06:41:36.262Z,99.99
2019-01-21T06:42:36.127Z,99.99
2019-01-21T06:43:35.989Z,99.99
2019-01-21T06:44:35.854Z,99.99
2019-01-21T06:45:35.716Z,99.99
2019-01-21T06:46:35.579Z,99.99
2019-01-21T06:47:35.441Z,99.99
2019-01-21T06:48:35.304Z,99.99
2019-01-21T06:49:35.167Z,99.99
2019-01-21T06:50:35.030Z,99.99
2019-01-21T06:51:34.891Z,99.99
2019-01-21T06:52:34.754Z,99.99
2019-01-21T06:53:34.617Z,99.99
2019-01-21T06:54:34.479Z,99.99
2019-01-21T06:55:34.344Z,99.99
2019-01-21T06:56:34.206Z,99.99
2019-01-21T06:57:34.069Z,99.99
2019-01-21T06:58:33.934Z,99.99
2019-01-21T06:59:33.793Z,99.99
2019-01-21T07:00:33.658Z,99.99
2019-01-21T07:01:33.520Z,99.99
2019-01-21T07:02:33.387Z,99.99
2019-01-21T07:03:33.250Z,99.99
2019-01-21T07:04:33.114Z,99.99
2019-01-21T07:05:32.971Z,99.99
2019-01-21T07:06:32.833Z,99.99
2019-01-21T07:07:32.698Z,99.99
2019-01-21T07:08:32.591Z,99.99
2019-01-21T07:09:32.421Z,99.99
2019-01-21T07:10:32.286Z,99.99
2019-01-21T07:11:32.152Z,99.99
2019-01-21T07:12:32.012Z,99.99
2019-01-21T07:13:31.873Z,99.99
2019-01-21T07:14:31.738Z,99.99
2019-01-21T07:15:31.603Z,99.99
2019-01-21T07:16:31.465Z,99.99
2019-01-21T07:17:31.328Z,99.99
2019-01-21T07:18:31.200Z,99.99
2019-01-21T07:19:31.055Z,99.99
2019-01-21T07:20:30.948Z,99.99
2019-01-21T07:21:30.790Z,99.99
2019-01-21T07:22:30.666Z,99.99
2019-01-21T07:23:30.507Z,99.99
2019-01-21T07:24:30.370Z,99.99
2019-01-21T07:25:30.233Z,99.99
2019-01-21T07:26:30.094Z,99.99
2019-01-21T07:27:29.959Z,99.99
2019-01-21T07:28:29.822Z,99.99
2019-01-21T07:29:29.684Z,99.99
2019-01-21T07:30:29.550Z,99.99
2019-01-21T07:31:29.410Z,99.99
2019-01-21T07:32:29.274Z,99.99
2019-01-21T07:33:29.136Z,99.99
2019-01-21T07:34:29.002Z,99.99
2019-01-21T07:35:28.863Z,99.99
2019-01-21T07:36:28.727Z,99.99
2019-01-21T07:37:28.591Z,99.99
2019-01-21T07:38:28.453Z,99.99
2019-01-21T07:39:28.317Z,99.99
2019-01-21T07:40:28.180Z,99.99
2019-01-21T07:41:28.043Z,99.99
2019-01-21T07:42:27.907Z,99.99
2019-01-21T07:43:27.770Z,99.99
2019-01-21T07:44:27.634Z,99.99
2019-01-21T07:45:27.496Z,99.99
2019-01-21T07:46:27.360Z,99.99
2019-01-21T07:47:27.225Z,99.99
2019-01-21T07:48:27.086Z,99.99
2019-01-21T07:49:26.951Z,99.99
2019-01-21T07:50:26.817Z,99.99
2019-01-21T07:51:26.678Z,99.99
2019-01-21T07:52:26.542Z,99.99
2019-01-21T07:53:26.405Z,99.99
2019-01-21T07:54:26.270Z,99.99
2019-01-21T07:55:26.133Z,99.99
2019-01-21T07:56:25.998Z,99.99
2019-01-21T07:57:25.870Z,99.99
2019-01-21T07:58:25.726Z,99.99
2019-01-21T07:59:25.594Z,99.99
2019-01-21T08:00:25.452Z,99.99
2019-01-21T08:01:25.311Z,99.99
2019-01-21T08:02:25.176Z,99.99
2019-01-21T08:03:25.047Z,99.99
2019-01-21T08:04:24.906Z,99.99
2019-01-21T08:05:24.768Z,99.99
2019-01-21T08:06:24.632Z,99.99
2019-01-21T08:07:24.495Z,99.99
2019-01-21T08:08:24.360Z,99.99
2019-01-21T08:09:24.223Z,99.99
2019-01-21T08:10:24.088Z,99.99
2019-01-21T08:11:23.954Z,99.99
2019-01-21T08:12:23.815Z,99.99
2019-01-21T08:13:23.677Z,99.99
2019-01-21T08:14:23.542Z,99.99
2019-01-21T08:15:26.298Z,99.99
2019-01-21T08:16:23.272Z,99.99
2019-01-21T08:17:23.140Z,99.99
2019-01-21T08:18:22.998Z,99.99
2019-01-21T08:19:24.235Z,99.99
2019-01-21T08:20:22.726Z,99.99
2019-01-21T08:21:22.589Z,99.99
2019-01-21T08:22:22.453Z,99.99
2019-01-21T08:23:22.318Z,99.37
2019-01-21T08:24:22.195Z,98.04
2019-01-21T08:25:22.046Z,97.57
2019-01-21T08:26:21.911Z,97.57
2019-01-21T08:27:21.774Z,99.46
2019-01-21T08:28:21.638Z,99.99
2019-01-21T08:29:21.507Z,99.99
2019-01-21T08:30:21.366Z,99.99
2019-01-21T08:31:21.231Z,99.99
2019-01-21T08:32:21.097Z,98.38
2019-01-21T08:33:20.969Z,97.05
2019-01-21T08:34:20.827Z,96.68
2019-01-21T08:35:20.689Z,96.30
2019-01-21T08:36:20.554Z,96.58
2019-01-21T08:37:20.418Z,95.54
2019-01-21T08:38:20.282Z,97.34
2019-01-21T08:39:20.147Z,96.39
2019-01-21T08:40:20.013Z,96.39
2019-01-21T08:41:19.874Z,96.58
2019-01-21T08:42:19.742Z,95.17
2019-01-21T08:43:19.605Z,92.43
2019-01-21T08:44:19.471Z,89.40
2019-01-21T08:45:19.336Z,88.56
2019-01-21T08:46:21.458Z,89.12
2019-01-21T08:47:19.066Z,88.75
2019-01-21T08:48:18.930Z,88.37
2019-01-21T08:49:18.798Z,88.65
2019-01-21T08:50:18.658Z,87.62
2019-01-21T08:51:18.524Z,85.35
2019-01-21T08:52:18.391Z,84.69
2019-01-21T08:53:18.254Z,84.59
2019-01-21T08:54:18.120Z,84.22
2019-01-21T08:55:17.986Z,83.93
2019-01-21T08:56:17.850Z,83.46
2019-01-21T08:57:17.712Z,83.65
2019-01-21T08:58:17.577Z,84.31
2019-01-21T08:59:17.445Z,85.35
2019-01-21T09:00:17.312Z,84.97
2019-01-21T09:01:17.175Z,84.41
2019-01-21T09:02:17.039Z,84.78
2019-01-21T09:03:16.907Z,83.74
2019-01-21T09:04:16.771Z,83.46
2019-01-21T09:05:16.638Z,82.80
2019-01-21T09:06:16.497Z,82.32
2019-01-21T09:07:16.419Z,82.61
2019-01-21T09:08:16.231Z,82.42
2019-01-21T09:09:16.093Z,82.80
2019-01-21T09:10:15.956Z,84.31
2019-01-21T09:11:15.826Z,84.69
2019-01-21T09:12:15.708Z,84.78
2019-01-21T09:13:15.571Z,84.22
2019-01-21T09:14:15.438Z,83.46
2019-01-21T09:15:15.285Z,83.36
2019-01-21T09:16:15.150Z,84.22
2019-01-21T09:17:15.136Z,84.59
2019-01-21T09:18:14.897Z,84.73
2019-01-21T09:19:14.748Z,84.22
2019-01-21T09:20:14.610Z,84.97
2019-01-21T09:21:14.476Z,84.69
2019-01-21T09:22:14.342Z,85.06
2019-01-21T09:23:14.208Z,85.25
2019-01-21T09:24:14.075Z,86.29
2019-01-21T09:25:13.938Z,86.29
2019-01-21T09:26:13.801Z,86.67
2019-01-21T09:27:13.668Z,86.57
2019-01-21T09:28:13.534Z,86.95
2019-01-21T09:29:13.399Z,86.15
2019-01-21T09:30:13.264Z,85.39
2019-01-21T09:31:13.130Z,85.96
2019-01-21T09:32:12.994Z,85.49
2019-01-21T09:33:12.867Z,84.64
2019-01-21T09:34:12.723Z,84.35
2019-01-21T09:35:12.592Z,84.73
2019-01-21T09:36:12.457Z,84.54
2019-01-21T09:37:12.322Z,84.82
2019-01-21T09:38:12.187Z,84.64
2019-01-21T09:39:12.054Z,84.82
2019-01-21T09:40:11.919Z,83.22
2019-01-21T09:41:11.782Z,81.71
2019-01-21T09:42:11.651Z,81.04
2019-01-21T09:43:11.513Z,80.29
2019-01-21T09:44:11.379Z,80.19
2019-01-21T09:45:11.245Z,81.04
2019-01-21T09:46:11.109Z,79.91
2019-01-21T09:47:10.977Z,79.06
2019-01-21T09:48:10.848Z,77.74
2019-01-21T09:49:10.708Z,77.36
2019-01-21T09:50:10.573Z,78.21
2019-01-21T09:51:10.440Z,77.74
2019-01-21T09:52:10.305Z,78.21
2019-01-21T09:53:10.172Z,77.93
2019-01-21T09:54:10.037Z,77.83
2019-01-21T09:55:09.905Z,77.55
2019-01-21T09:56:09.768Z,77.50
2019-01-21T09:57:09.634Z,77.50
2019-01-21T09:58:09.500Z,77.93
2019-01-21T09:59:09.365Z,78.68
2019-01-21T10:00:09.232Z,79.06
2019-01-21T10:01:09.169Z,80.14
2019-01-21T10:02:08.970Z,79.76
2019-01-21T10:03:08.829Z,79.48
2019-01-21T10:04:08.699Z,78.81
2019-01-21T10:05:08.563Z,78.72
2019-01-21T10:06:08.430Z,81.23
2019-01-21T10:07:08.296Z,83.50
2019-01-21T10:08:08.161Z,85.11
2019-01-21T10:09:08.030Z,85.68
2019-01-21T10:10:07.892Z,86.24
2019-01-21T10:11:07.760Z,85.30
2019-01-21T10:12:07.627Z,84.54
2019-01-21T10:13:07.492Z,84.64
2019-01-21T10:14:07.359Z,84.54
2019-01-21T10:15:07.226Z,84.26
2019-01-21T10:16:07.090Z,83.31
2019-01-21T10:17:06.956Z,83.78
2019-01-21T10:18:06.823Z,83.31
2019-01-21T10:19:06.692Z,83.69
2019-01-21T10:20:06.554Z,83.50
2019-01-21T10:21:06.421Z,83.31
2019-01-21T10:22:06.288Z,82.79
2019-01-21T10:23:06.156Z,82.09
2019-01-21T10:24:06.020Z,80.57
2019-01-21T10:25:05.886Z,81.33
2019-01-21T10:26:05.751Z,81.52
2019-01-21T10:27:05.621Z,81.52
2019-01-21T10:28:05.487Z,81.52
2019-01-21T10:29:05.349Z,81.84
2019-01-21T10:30:05.219Z,82.03
2019-01-21T10:31:05.081Z,81.37
2019-01-21T10:32:04.951Z,81.27
2019-01-21T10:33:04.818Z,80.52
2019-01-21T10:34:04.680Z,79.76
2019-01-21T10:35:04.547Z,78.91
2019-01-21T10:36:04.415Z,78.53
2019-01-21T10:37:04.281Z,77.69
2019-01-21T10:38:04.148Z,77.21
2019-01-21T10:39:04.019Z,78.16
2019-01-21T10:40:07.863Z,79.19
2019-01-21T10:41:03.746Z,79.48
2019-01-21T10:42:03.614Z,79.57
2019-01-21T10:43:03.482Z,80.52
2019-01-21T10:44:03.349Z,80.99
2019-01-21T10:45:03.215Z,81.46
2019-01-21T10:46:03.082Z,84.01
2019-01-21T10:47:02.948Z,85.72
2019-01-21T10:48:02.816Z,86.85
2019-01-21T10:49:02.684Z,87.42
2019-01-21T10:50:02.546Z,87.51
2019-01-21T10:51:02.411Z,85.72
2019-01-21T10:52:02.279Z,84.96
2019-01-21T10:53:02.146Z,84.96
2019-01-21T10:54:02.010Z,84.77
2019-01-21T10:55:01.879Z,85.34
2019-01-21T10:56:01.750Z,85.72
2019-01-21T10:57:01.612Z,85.91
2019-01-21T10:58:01.478Z,86.76
2019-01-21T10:59:01.344Z,86.29
2019-01-21T11:00:01.212Z,85.77
2019-01-21T11:01:01.076Z,86.47
2019-01-21T11:02:00.947Z,86.66
2019-01-21T11:03:00.811Z,87.04
2019-01-21T11:04:00.676Z,86.66
2019-01-21T11:05:00.550Z,87.79
2019-01-21T11:06:00.410Z,89.31
2019-01-21T11:07:00.277Z,89.69
2019-01-21T11:08:00.141Z,90.44
2019-01-21T11:09:00.009Z,90.63
2019-01-21T11:09:59.875Z,91.01
2019-01-21T11:10:59.741Z,90.54
2019-01-21T11:11:59.607Z,90.44
2019-01-21T11:12:59.473Z,88.84
2019-01-21T11:13:59.340Z,88.74
2019-01-21T11:14:59.207Z,88.65
2019-01-21T11:15:59.071Z,87.51
2019-01-21T11:16:58.940Z,86.19
2019-01-21T11:17:58.806Z,85.81
2019-01-21T11:18:58.677Z,85.34
2019-01-21T11:20:03.969Z,84.77
2019-01-21T11:20:58.403Z,84.30
2019-01-21T11:21:58.273Z,84.77
2019-01-21T11:22:58.142Z,83.54
2019-01-21T11:23:58.042Z,84.01
2019-01-21T11:24:57.871Z,84.77
2019-01-21T11:25:57.739Z,85.81
2019-01-21T11:26:57.606Z,87.70
2019-01-21T11:27:57.472Z,89.22
2019-01-21T11:28:57.343Z,89.87
2019-01-21T11:29:57.210Z,90.54
2019-01-21T11:30:57.073Z,89.50
2019-01-21T11:31:56.941Z,88.36
2019-01-21T11:32:56.807Z,88.65
2019-01-21T11:33:56.673Z,88.27
2019-01-21T11:34:56.540Z,86.94
2019-01-21T11:35:56.423Z,87.51
2019-01-21T11:36:56.277Z,88.27
2019-01-21T11:37:56.141Z,89.31
2019-01-21T11:38:56.011Z,89.40
2019-01-21T11:39:55.878Z,90.16
2019-01-21T11:40:55.743Z,91.10
2019-01-21T11:41:55.609Z,92.14
2019-01-21T11:42:55.479Z,91.77
2019-01-21T11:43:55.345Z,90.82
2019-01-21T11:44:55.210Z,90.63
2019-01-21T11:45:55.079Z,90.35
2019-01-21T11:46:54.945Z,89.59
2019-01-21T11:47:54.811Z,89.69
2019-01-21T11:48:54.677Z,89.69
2019-01-21T11:49:54.543Z,89.78
2019-01-21T11:50:54.414Z,89.78
2019-01-21T11:51:54.280Z,88.74
2019-01-21T11:52:54.145Z,88.46
2019-01-21T11:53:54.013Z,88.93
2019-01-21T11:54:53.881Z,87.98
2019-01-21T11:55:53.748Z,87.32
2019-01-21T11:56:53.612Z,86.57
2019-01-21T11:57:53.481Z,86.66
2019-01-21T11:58:53.347Z,87.04
2019-01-21T11:59:53.215Z,86.38
2019-01-21T12:00:53.081Z,86.76
2019-01-21T12:01:52.952Z,86.57
2019-01-21T12:02:52.819Z,87.23
2019-01-21T12:03:52.687Z,86.29
2019-01-21T12:04:52.550Z,86.76
2019-01-21T12:05:52.417Z,86.66
2019-01-21T12:06:52.283Z,86.85
2019-01-21T12:07:52.152Z,87.51
2019-01-21T12:08:52.018Z,86.85
2019-01-21T12:09:51.884Z,86.47
2019-01-21T12:10:51.751Z,86.47
2019-01-21T12:11:51.618Z,86.10
2019-01-21T12:12:51.484Z,85.81
2019-01-21T12:13:51.357Z,84.01
2019-01-21T12:14:51.221Z,83.83
2019-01-21T12:15:51.086Z,82.79
2019-01-21T12:16:50.951Z,82.88
2019-01-21T12:17:50.821Z,82.22
2019-01-21T12:18:50.688Z,84.11
2019-01-21T12:19:50.557Z,84.77
2019-01-21T12:20:50.422Z,85.24
2019-01-21T12:21:50.289Z,84.68
2019-01-21T12:22:50.157Z,85.24
2019-01-21T12:23:50.025Z,84.77
2019-01-21T12:24:49.891Z,84.68
2019-01-21T12:25:49.755Z,84.30
2019-01-21T12:26:49.624Z,84.30
2019-01-21T12:27:49.489Z,84.86
2019-01-21T12:28:49.356Z,84.77
2019-01-21T12:29:49.224Z,84.58
2019-01-21T12:30:49.090Z,85.05
2019-01-21T12:31:48.957Z,85.53
2019-01-21T12:32:48.825Z,86.00
2019-01-21T12:33:48.695Z,86.00
2019-01-21T12:34:48.564Z,85.00
2019-01-21T12:35:48.424Z,79.61
2019-01-21T12:36:48.293Z,78.48
2019-01-21T12:37:48.158Z,78.48
2019-01-21T12:38:48.026Z,79.67
2019-01-21T12:39:47.895Z,80.14
2019-01-21T12:40:47.759Z,81.60
2019-01-21T12:41:47.628Z,81.98
2019-01-21T12:42:47.497Z,81.51
2019-01-21T12:43:47.363Z,82.26
2019-01-21T12:44:47.232Z,82.83
2019-01-21T12:45:47.097Z,83.17
2019-01-21T12:46:46.968Z,83.49
2019-01-21T12:47:46.832Z,83.78
2019-01-21T12:48:46.701Z,83.49
2019-01-21T12:49:46.566Z,82.92
2019-01-21T12:50:46.433Z,83.02